Granite Falls, WA (98252)

11:57 PM PDT on June 26, 2017 (GMT -0700)
South Granite | | Change Station

Elev 416 ft 48.07 °N, 121.96 °W | Updated 51 seconds ago

Clear
Clear
52.5 °F
Feels Like 52.5 °F
N
2.0
Wind Variable Wind from ESE

Today
High -- | Low -- °F
--% Chance of Precip.
Yesterday
High -- | Low -- °F
Precip. -- in
Pressure 30.01 in
Visibility 10.0 miles
Clouds Clear
Dew Point 51 °F
Humidity 95%
Rainfall 0.00 in
Snow Depth Not available.
5:09 AM 9:11 PM
Waxing Crescent, 14% visible
METAR KAWO 270656Z AUTO 29006KT 10SM CLR 12/09 A3000 RMK AO2 SLP161 T01170089 402390117
Pressure 30.01 in
Visibility 10.0 miles
Clouds Clear
Dew Point 51 °F
Humidity 95%
Rainfall 0.00 in
Snow Depth Not available.
5:09 AM 9:11 PM
Waxing Crescent, 14% visible
METAR KAWO 270656Z AUTO 29006KT 10SM CLR 12/09 A3000 RMK AO2 SLP161 T01170089 402390117

Get Severe Weather Alerts

Thanks for signing up!

Be on the lookout for a verification email in your inbox.

You'll start receiving the daily forecast at 6 AM.

×

10-Day Weather Forecast

Almanac

Astronomy

Jun. 26, 2017 Rise Set
Actual Time
Civil Twilight
Nautical Twilight
Astronomical Twilight
Moon
Length of Visible Light
Length of Day
Tomorrow will be .
, % of the Moon is Illuminated

Today's Extremes

State Highs State Lows

Community

WunderPhotos

Category 6

Welcome to Category 6. This is the collective home for Weather Underground's featured writeups by Dr. Jeff Masters (right), Bob Henson (left), Chris Burt, and other regular contributors.

Nearby

Air Quality

  Air Quality AQ Index Pollutant
Not available.

Snow Depth

Station Depth Elevation

Earthquake Activity

City Distance Mag. Time & Date
Minimum magnitude displayed is 2.5.

Coastal Water Temperatures

Place Temperature

Stations

Nearby Weather Stations

Station Location Temp. Windchill Dew Point Humidity Wind Precip. Elev Updated Type
                   

Watches & Warnings

There are currently no watches in effect.